Time;durP1;ratioP1;P1;durP2;ratioP2;P2;SDS_P1;SDS_P2;PMS_P1;PMS_P2;Temp;Humidity;BMP_temperature;BMP_pressure;BME280_temperature;BME280_humidity;BME280_pressure;Samples;Min_cycle;Max_cycle;Signal;HPM_P1;HPM_P2
2021/07/23 00:02:18;;;;;;;0.28;0.28;;;15.10;69.70;;;17.68;58.83;102064.16;5034436;27;97236;-72
2021/07/23 00:04:46;;;;;;;0.17;0.17;;;15.10;69.80;;;17.65;58.66;102058.59;5036701;27;97007;-72
2021/07/23 00:07:15;;;;;;;0.15;0.15;;;15.00;69.80;;;17.66;58.79;102057.47;5019768;27;97957;-72
2021/07/23 00:09:44;;;;;;;0.52;0.52;;;15.00;69.90;;;17.65;57.78;102048.53;5036701;27;96864;-72
2021/07/23 00:12:13;;;;;;;0.20;0.20;;;15.00;69.90;;;17.63;58.38;102050.75;5040161;27;97017;-72
2021/07/23 00:14:42;;;;;;;2.00;0.75;;;15.00;70.00;;;17.59;58.75;102049.81;5034278;27;100344;-72
2021/07/23 00:17:12;;;;;;;0.52;0.43;;;14.90;69.90;;;17.59;57.96;102051.72;5032620;27;97812;-72
2021/07/23 00:19:42;;;;;;;5.10;1.55;;;14.90;69.90;;;17.60;57.48;102045.19;5038247;27;96752;-72
2021/07/23 00:22:11;;;;;;;4.65;0.25;;;14.90;69.90;;;17.53;58.53;102051.06;5040919;27;97199;-72
2021/07/23 00:24:39;;;;;;;0.95;0.40;;;14.90;70.00;;;17.51;58.06;102047.88;5040367;27;96880;-72
2021/07/23 00:27:08;;;;;;;3.40;0.88;;;14.80;69.90;;;17.45;58.74;102051.88;5054871;27;97492;-72
2021/07/23 00:29:38;;;;;;;2.03;1.38;;;14.80;69.90;;;17.42;57.99;102054.41;5054029;27;99826;-72
2021/07/23 00:32:08;;;;;;;0.20;0.20;;;14.80;70.00;;;17.39;58.66;102049.59;5041454;27;96980;-72
2021/07/23 00:34:38;;;;;;;0.63;0.63;;;14.70;70.00;;;17.26;59.10;102049.69;5021712;27;96838;-72
2021/07/23 00:37:06;;;;;;;1.67;1.27;;;14.70;70.00;;;17.31;58.65;102048.44;5019709;27;97689;-72
2021/07/23 00:39:36;;;;;;;0.25;0.25;;;14.60;70.10;;;17.26;58.47;102044.28;5035539;27;97447;-72
2021/07/23 00:42:05;;;;;;;0.15;0.15;;;14.60;70.10;;;17.26;57.73;102044.28;5034445;27;96786;-72
2021/07/23 00:44:34;;;;;;;0.98;0.75;;;14.60;70.20;;;17.25;58.05;102048.09;5033877;27;97724;-72
2021/07/23 00:47:05;;;;;;;0.98;0.30;;;14.50;70.20;;;17.19;58.44;102047.44;5028678;27;96862;-72
2021/07/23 00:49:39;;;;;;;0.10;0.10;;;14.50;70.20;;;17.07;58.28;102041.81;5037718;27;96894;-72
2021/07/23 00:52:08;;;;;;;1.25;0.45;;;14.50;70.20;;;17.05;58.25;102038.63;5034822;27;96995;-72
2021/07/23 00:54:36;;;;;;;2.72;0.30;;;14.40;70.30;;;17.05;59.04;102041.34;5028569;27;98042;-72
2021/07/23 00:57:06;;;;;;;0.57;0.57;;;14.40;70.30;;;17.01;57.98;102034.16;5033161;27;96782;-72
2021/07/23 00:59:34;;;;;;;0.28;0.28;;;14.40;70.30;;;16.99;58.22;102036.38;5037324;27;96913;-72
2021/07/23 01:02:04;;;;;;;0.20;0.20;;;14.30;70.30;;;16.96;59.06;102029.66;5034366;27;97114;-72
2021/07/23 01:04:34;;;;;;;0.30;0.30;;;14.30;70.30;;;16.92;58.19;102028.69;5037642;27;97401;-72
2021/07/23 01:07:07;;;;;;;1.90;1.25;;;14.30;70.30;;;16.80;59.34;102031.19;5032956;27;96928;-72
2021/07/23 01:09:37;;;;;;;2.75;1.08;;;14.20;70.30;;;16.78;58.31;102027.19;5033671;27;97021;-72
2021/07/23 01:12:13;;;;;;;0.77;0.52;;;14.20;70.40;;;16.79;58.78;102021.47;5017715;27;96902;-72
2021/07/23 01:14:46;;;;;;;2.53;0.32;;;14.20;70.40;;;16.79;59.08;102020.66;5028485;27;96776;-72
2021/07/23 01:17:15;;;;;;;1.95;1.20;;;14.20;70.40;;;16.75;59.04;102016.97;5047499;27;97827;-72
2021/07/23 01:19:53;;;;;;;1.33;0.88;;;14.10;70.40;;;16.73;58.28;102014.59;5036234;27;97668;-72
2021/07/23 01:22:28;;;;;;;0.00;0.00;;;14.10;70.40;;;16.83;58.92;102003.50;5034267;27;96959;-72
2021/07/23 01:25:00;;;;;;;2.03;1.08;;;14.10;70.50;;;16.69;58.35;102007.41;5023826;27;97986;-72
2021/07/23 01:27:34;;;;;;;0.32;0.20;;;14.00;70.40;;;16.65;58.68;102003.72;5041346;27;96933;-72
2021/07/23 01:30:10;;;;;;;0.22;0.22;;;14.00;70.50;;;16.57;58.45;102007.97;5056210;27;96756;-72
2021/07/23 01:32:45;;;;;;;0.17;0.17;;;14.00;70.50;;;16.61;58.13;102006.25;5033697;27;97042;-72
2021/07/23 01:35:15;;;;;;;0.88;0.88;;;13.90;70.50;;;16.58;59.20;102009.56;5033902;27;97943;-72
2021/07/23 01:37:47;;;;;;;0.80;0.73;;;13.90;70.50;;;16.52;59.02;102004.63;5034340;27;98211;-72
2021/07/23 01:40:23;;;;;;;14.27;1.58;;;13.90;70.50;;;16.48;58.67;101996.31;5035001;27;96789;-72
2021/07/23 01:42:53;;;;;;;0.40;0.40;;;13.80;70.50;;;16.43;58.72;102003.75;5023817;27;96952;-72
2021/07/23 01:45:22;;;;;;;0.38;0.38;;;13.80;70.60;;;16.41;58.57;102009.50;5018376;27;99346;-72
2021/07/23 01:48:22;;;;;;;0.10;0.10;;;13.80;70.70;;;16.46;58.40;102005.84;4997563;27;96883;-72
2021/07/23 01:50:52;;;;;;;0.00;0.00;;;13.70;70.70;;;16.41;58.23;102000.56;5016414;28;96823;-72
2021/07/23 01:53:22;;;;;;;30.50;0.90;;;13.70;70.70;;;16.39;59.05;102000.09;5032166;27;97035;-72
2021/07/23 01:55:56;;;;;;;;;;;13.70;70.70;;;16.33;59.00;101993.97;5036459;27;98634;-73
2021/07/23 01:58:25;;;;;;;0.68;0.65;;;13.70;70.80;;;16.29;59.19;101998.41;5040575;27;96938;-72
2021/07/23 02:00:58;;;;;;;0.28;0.28;;;13.60;70.70;;;16.26;59.20;102000.94;5051032;27;96826;-72
2021/07/23 02:03:32;;;;;;;0.28;0.28;;;13.60;70.70;;;16.23;58.34;102010.44;5030041;27;97008;-72
2021/07/23 02:06:05;;;;;;;1.00;0.70;;;13.60;70.70;;;16.21;59.13;101998.34;5041321;27;97647;-72
2021/07/23 02:08:34;;;;;;;0.73;0.73;;;13.50;70.60;;;16.13;58.42;102004.50;5034384;27;98468;-72
2021/07/23 02:11:07;;;;;;;0.20;0.20;;;13.50;70.70;;;16.03;59.15;101994.72;5031520;27;97255;-72
2021/07/23 02:13:38;;;;;;;0.75;0.75;;;13.40;70.70;;;15.84;59.03;101994.09;5034807;27;97558;-72
2021/07/23 02:16:08;;;;;;;1.83;1.05;;;13.40;70.80;;;15.87;59.36;101998.09;5036236;27;96999;-72
2021/07/23 02:18:37;;;;;;;0.73;0.57;;;13.30;71.00;;;16.05;58.85;101997.91;5031549;27;97157;-72
2021/07/23 02:21:12;;;;;;;0.80;0.77;;;13.30;71.70;;;16.18;58.80;101998.94;5035011;27;96881;-72
2021/07/23 02:23:40;;;;;;;0.75;0.75;;;13.30;71.10;;;16.14;58.21;101998.78;5015560;27;97039;-72
2021/07/23 02:26:18;;;;;;;0.95;0.85;;;13.30;71.00;;;16.14;58.56;101997.97;5036231;27;97066;-72
2021/07/23 02:28:50;;;;;;;1.35;0.65;;;13.30;70.90;;;16.06;58.54;102001.44;5027550;27;97623;-72
2021/07/23 02:31:19;;;;;;;0.68;0.57;;;13.30;70.90;;;16.08;58.73;102002.72;5038800;27;97020;-72
2021/07/23 02:33:59;;;;;;;2.13;0.82;;;13.40;71.00;;;16.06;59.09;101998.72;5033783;27;101367;-72
2021/07/23 02:36:37;;;;;;;0.15;0.15;;;13.40;71.00;;;16.09;58.82;101992.69;5022914;27;97837;-72
2021/07/23 02:39:09;;;;;;;0.68;0.30;;;13.40;71.00;;;16.15;58.76;101992.28;5036796;27;99088;-72
2021/07/23 02:41:48;;;;;;;2.20;0.68;;;13.40;70.90;;;16.11;59.08;101993.19;5041551;27;96836;-72
2021/07/23 02:44:17;;;;;;;1.00;0.95;;;13.40;70.80;;;16.14;58.65;101985.25;5043296;27;97170;-72
2021/07/23 02:46:45;;;;;;;0.17;0.17;;;13.40;70.80;;;16.10;59.28;101989.69;5039454;27;97824;-72
2021/07/23 02:49:19;;;;;;;0.80;0.70;;;13.40;70.80;;;16.15;58.96;101992.28;5039888;27;97786;-72
2021/07/23 02:51:50;;;;;;;0.75;0.75;;;13.40;70.80;;;16.09;59.04;101988.09;5031131;27;96919;-72
2021/07/23 02:54:19;;;;;;;0.03;0.03;;;13.40;70.80;;;16.10;59.31;101987.00;5038149;27;96957;-72
2021/07/23 02:56:49;;;;;;;0.15;0.15;;;13.50;70.80;;;16.12;58.33;101983.97;5040933;27;96882;-73
2021/07/23 02:59:19;;;;;;;0.25;0.25;;;13.50;70.80;;;16.11;58.30;101985.88;5040246;27;99092;-72
2021/07/23 03:01:54;;;;;;;2.50;0.75;;;13.50;70.80;;;16.19;58.57;101985.13;5035624;27;96843;-72
2021/07/23 03:04:27;;;;;;;0.13;0.13;;;13.50;70.80;;;16.17;58.09;101989.25;5030614;27;97035;-72
2021/07/23 03:06:56;;;;;;;2.15;0.88;;;13.50;70.70;;;16.20;58.71;101991.31;5021780;27;98998;-72
2021/07/23 03:09:26;;;;;;;0.13;0.13;;;13.50;70.80;;;16.22;58.08;101984.50;5036656;27;97852;-72
2021/07/23 03:11:59;;;;;;;0.00;0.00;;;13.50;70.80;;;16.21;58.84;101992.91;5038617;27;97003;-72
2021/07/23 03:14:34;;;;;;;0.52;0.52;;;13.50;70.90;;;16.19;58.82;101982.44;5036177;27;97682;-72
2021/07/23 03:17:11;;;;;;;1.25;1.08;;;13.50;70.80;;;16.18;57.96;101983.53;5024459;27;98273;-72
2021/07/23 03:19:42;;;;;;;1.95;1.48;;;13.50;70.80;;;16.16;58.81;101982.25;5039618;27;97731;-72
2021/07/23 03:22:11;;;;;;;0.65;0.60;;;13.50;70.80;;;16.19;58.13;101971.63;5022752;27;97385;-72
2021/07/23 03:24:43;;;;;;;3.00;0.85;;;13.50;70.80;;;16.14;58.47;101968.22;5035097;27;97125;-73
2021/07/23 03:27:25;;;;;;;0.40;0.35;;;13.50;70.70;;;16.16;58.94;101968.72;5023185;27;96993;-72
2021/07/23 03:30:14;;;;;;;1.00;0.63;;;13.50;70.80;;;16.15;58.09;101975.22;5042427;27;97524;-72
2021/07/23 03:32:44;;;;;;;0.45;0.45;;;13.50;70.80;;;16.17;58.81;101973.03;5040974;27;97878;-72
2021/07/23 03:35:13;;;;;;;0.88;0.85;;;13.40;70.70;;;16.21;58.00;101971.28;5035974;27;96864;-73
2021/07/23 03:37:48;;;;;;;0.20;0.20;;;13.50;70.70;;;16.22;58.88;101970.22;5035615;27;97900;-72
2021/07/23 03:40:24;;;;;;;5.25;1.75;;;13.50;70.70;;;16.19;58.46;101976.22;5036181;27;96885;-72
2021/07/23 03:42:56;;;;;;;2.15;0.77;;;13.50;70.70;;;16.27;57.95;101970.06;5039213;27;96771;-72
2021/07/23 03:45:30;;;;;;;0.30;0.30;;;13.50;70.70;;;16.25;58.37;101964.97;5038802;27;97090;-73
2021/07/23 03:48:06;;;;;;;0.65;0.65;;;13.50;70.70;;;16.29;57.76;101965.16;5022172;27;97978;-72
2021/07/23 03:50:41;;;;;;;3.92;0.70;;;13.50;70.70;;;16.30;58.34;101972.94;5033169;27;97666;-72
2021/07/23 03:53:11;;;;;;;0.30;0.30;;;13.50;70.60;;;16.42;57.77;101969.69;5011358;27;96827;-71
2021/07/23 03:55:48;;;;;;;0.38;0.38;;;13.60;70.60;;;16.37;58.43;101969.84;5042340;27;96788;-72
2021/07/23 03:58:39;;;;;;;0.45;0.45;;;13.60;70.60;;;16.37;57.57;101967.13;5035697;27;96730;-72
2021/07/23 04:01:10;;;;;;;1.07;1.00;;;13.60;70.60;;;16.37;57.75;101961.72;5036636;27;97740;-72
2021/07/23 04:03:43;;;;;;;0.77;0.60;;;13.60;70.60;;;16.44;57.98;101968.28;5039078;27;96903;-72
2021/07/23 04:06:15;;;;;;;0.93;0.22;;;13.60;70.60;;;16.57;57.96;101963.91;5030002;27;96663;-72
2021/07/23 04:08:44;;;;;;;2.05;0.40;;;13.70;70.70;;;16.72;57.14;101966.19;5018076;27;97878;-72
2021/07/23 04:11:26;;;;;;;0.40;0.40;;;13.70;70.60;;;16.86;57.69;101961.47;5034944;27;98067;-71
2021/07/23 04:13:59;;;;;;;1.40;0.63;;;13.80;70.50;;;16.84;57.43;101961.00;5024545;27;96992;-73
2021/07/23 04:16:30;;;;;;;4.05;0.73;;;13.90;70.30;;;16.79;57.62;101961.09;5036411;27;96847;-72
2021/07/23 04:18:59;;;;;;;0.17;0.17;;;13.90;70.90;;;16.86;57.96;101964.19;5037082;27;97882;-72
2021/07/23 04:21:35;;;;;;;0.50;0.50;;;13.90;70.30;;;16.93;57.81;101961.81;5023083;27;98621;-72
2021/07/23 04:24:15;;;;;;;0.20;0.20;;;14.00;70.30;;;17.08;57.31;101950.53;5042873;27;97595;-72
2021/07/23 04:26:45;;;;;;;0.95;0.90;;;14.00;70.30;;;17.16;56.49;101947.06;5046881;27;97012;-72
2021/07/23 04:29:15;;;;;;;1.15;1.05;;;14.10;70.30;;;17.20;57.20;101948.81;5044150;27;96945;-72
2021/07/23 04:31:44;;;;;;;0.40;0.35;;;14.20;70.30;;;17.29;56.96;101949.63;5043536;27;96827;-72
2021/07/23 04:34:13;;;;;;;0.20;0.15;;;14.20;70.30;;;17.37;56.42;101951.59;5036613;27;96921;-72
2021/07/23 04:37:00;;;;;;;0.28;0.28;;;14.30;70.30;;;17.48;56.75;101945.53;5038816;27;97103;-72
2021/07/23 04:39:38;;;;;;;0.20;0.20;;;14.40;70.30;;;17.52;56.36;101948.41;5041654;27;97969;-72
2021/07/23 04:42:11;;;;;;;0.32;0.32;;;14.40;70.30;;;17.60;56.09;101934.84;5044907;27;97291;-72
2021/07/23 04:44:41;;;;;;;1.35;1.25;;;14.40;70.20;;;17.65;56.71;101933.91;5041886;27;97481;-72
2021/07/23 04:47:10;;;;;;;0.20;0.20;;;14.50;70.30;;;17.70;56.15;101941.88;5037622;27;98063;-73
2021/07/23 04:49:44;;;;;;;0.22;0.22;;;14.50;70.20;;;17.71;56.51;101936.13;5028012;27;97638;-73
2021/07/23 04:52:21;;;;;;;0.88;0.73;;;14.60;70.20;;;17.78;56.58;101932.94;5018802;27;98020;-72
2021/07/23 04:55:12;;;;;;;0.22;0.22;;;14.60;70.20;;;17.82;56.60;101931.97;5036245;27;98353;-72
2021/07/23 04:58:06;;;;;;;0.82;0.55;;;14.70;70.20;;;17.89;56.21;101940.41;5038856;27;96984;-72
2021/07/23 05:00:35;;;;;;;0.63;0.63;;;14.70;70.10;;;17.95;56.32;101941.06;5041103;27;97995;-73
2021/07/23 05:03:05;;;;;;;0.10;0.10;;;14.80;70.10;;;17.99;56.57;101942.00;5033859;27;98273;-72
2021/07/23 05:05:36;;;;;;;0.38;0.38;;;14.90;70.10;;;18.17;56.33;101935.44;5035573;27;97316;-72
2021/07/23 05:08:06;;;;;;;2.95;1.85;;;14.90;70.10;;;18.24;56.58;101938.44;5033761;27;97315;-72
2021/07/23 05:10:36;;;;;;;0.00;0.00;;;15.00;70.10;;;18.28;56.17;101944.84;5039238;27;97355;-72
2021/07/23 05:13:06;;;;;;;0.10;0.10;;;15.00;70.00;;;18.29;56.57;101933.66;5025001;27;97054;-72
2021/07/23 05:15:39;;;;;;;0.03;0.03;;;15.10;70.00;;;18.34;56.16;101936.22;5038393;27;97364;-72
2021/07/23 05:18:10;;;;;;;0.30;0.30;;;15.10;70.00;;;18.45;56.09;101939.34;5034695;27;96924;-72
2021/07/23 05:20:39;;;;;;;0.25;0.25;;;15.20;70.00;;;18.52;55.96;101926.09;5037899;27;98157;-72
2021/07/23 05:23:08;;;;;;;0.90;0.47;;;15.20;69.90;;;18.56;56.33;101938.66;5020420;27;97721;-72
2021/07/23 05:25:38;;;;;;;0.70;0.65;;;15.30;69.90;;;18.61;56.12;101941.19;5034808;27;96808;-72
2021/07/23 05:28:08;;;;;;;2.67;0.60;;;15.30;69.90;;;18.72;55.82;101942.44;5037438;27;96897;-72
2021/07/23 05:30:37;;;;;;;1.75;0.55;;;15.40;69.90;;;18.73;55.92;101937.81;5037012;27;97954;-71
2021/07/23 05:33:06;;;;;;;0.30;0.22;;;15.50;69.90;;;18.87;55.71;101939.16;5001749;27;99861;-73
2021/07/23 05:35:35;;;;;;;1.92;1.02;;;15.50;69.80;;;18.98;55.40;101937.69;5040676;27;96983;-72
2021/07/23 05:38:04;;;;;;;1.05;1.05;;;15.60;69.70;;;18.98;55.73;101935.75;5035491;27;96995;-72
2021/07/23 05:40:34;;;;;;;0.65;0.65;;;15.70;69.70;;;19.09;55.60;101936.16;5036414;27;96946;-72
2021/07/23 05:43:04;;;;;;;1.85;1.40;;;15.70;69.60;;;19.17;55.65;101938.06;5042070;27;97648;-72
2021/07/23 05:45:33;;;;;;;0.88;0.45;;;15.80;69.60;;;19.27;55.69;101940.41;5030856;27;96781;-73
2021/07/23 05:48:05;;;;;;;3.55;0.95;;;15.90;69.50;;;19.29;55.45;101932.72;5035169;27;96941;-72
2021/07/23 05:50:34;;;;;;;0.13;0.13;;;16.00;69.50;;;19.36;55.36;101941.13;5031719;27;96867;-73
2021/07/23 05:53:05;;;;;;;0.75;0.55;;;16.10;69.50;;;19.46;55.20;101936.09;5031217;27;97010;-72
2021/07/23 05:55:34;;;;;;;0.10;0.10;;;16.10;69.40;;;19.50;55.24;101934.31;5034306;27;96925;-73
2021/07/23 05:58:04;;;;;;;1.13;0.57;;;16.20;69.40;;;19.57;55.11;101941.94;5038244;27;97521;-73
2021/07/23 06:00:33;;;;;;;3.42;1.42;;;16.20;69.40;;;19.63;55.96;101957.69;5035704;27;97880;-72
2021/07/23 06:03:05;;;;;;;1.98;1.20;;;16.30;69.50;;;19.67;55.65;101946.97;5045835;27;97500;-72
2021/07/23 06:05:35;;;;;;;2.08;0.68;;;16.40;69.40;;;19.72;55.15;101952.19;5036989;27;96962;-72
2021/07/23 06:08:05;;;;;;;1.73;0.65;;;16.40;69.40;;;19.73;55.79;101951.06;5043704;27;96956;-73
2021/07/23 06:10:33;;;;;;;3.33;0.98;;;16.40;69.40;;;19.76;55.81;101953.94;5041830;27;96935;-73
2021/07/23 06:13:05;;;;;;;0.88;0.65;;;16.50;69.40;;;19.77;55.51;101950.09;5034827;27;97610;-73
2021/07/23 06:15:35;;;;;;;1.40;1.08;;;16.50;69.40;;;19.80;55.36;101946.69;5038816;27;96833;-73
2021/07/23 06:18:08;;;;;;;0.10;0.10;;;16.60;69.40;;;19.94;55.18;101951.84;5039446;27;97055;-72
2021/07/23 06:20:37;;;;;;;2.97;1.60;;;16.60;69.40;;;19.95;55.50;101951.50;5046588;27;96878;-73
2021/07/23 06:23:06;;;;;;;0.38;0.38;;;16.60;69.30;;;19.95;55.45;101948.00;5039140;27;97594;-72
2021/07/23 06:25:34;;;;;;;0.65;0.63;;;16.70;69.40;;;20.02;56.12;101949.09;5038930;27;97062;-72
2021/07/23 06:28:06;;;;;;;2.95;1.80;;;16.70;69.30;;;20.09;55.43;101940.34;5038661;27;99286;-73
2021/07/23 06:30:35;;;;;;;4.30;2.92;;;16.80;69.40;;;20.08;55.50;101942.28;5037417;27;98127;-72
2021/07/23 06:33:05;;;;;;;2.53;1.02;;;16.80;69.30;;;20.09;55.60;101938.44;5046697;27;97791;-72
2021/07/23 06:35:35;;;;;;;1.00;0.98;;;16.90;69.40;;;20.11;55.67;101938.91;5023419;27;96952;-72
2021/07/23 06:38:05;;;;;;;0.73;0.73;;;16.90;69.30;;;20.21;55.65;101940.41;5056897;27;96809;-72
2021/07/23 06:40:33;;;;;;;3.30;1.70;;;16.90;69.30;;;20.22;55.95;101942.00;5036408;27;98079;-72
2021/07/23 06:43:07;;;;;;;0.93;0.88;;;17.00;69.30;;;20.36;54.96;101940.53;5039152;27;97744;-72
2021/07/23 06:45:36;;;;;;;0.80;0.65;;;17.00;69.30;;;20.41;55.81;101934.06;5023385;28;96831;-72
2021/07/23 06:48:07;;;;;;;0.85;0.82;;;17.10;69.30;;;20.58;55.07;101942.84;5042668;27;96821;-72
2021/07/23 06:50:37;;;;;;;0.52;0.50;;;17.10;69.20;;;20.78;54.55;101939.22;5031795;27;98657;-73
2021/07/23 06:53:06;;;;;;;0.95;0.65;;;17.20;69.20;;;20.89;54.40;101938.44;5036314;27;97662;-72
2021/07/23 06:55:35;;;;;;;0.70;0.68;;;17.30;69.10;;;20.94;54.46;101948.34;5027790;28;96946;-72
2021/07/23 06:58:05;;;;;;;1.45;0.93;;;17.40;69.00;;;20.96;54.69;101946.06;5034740;27;97366;-72
2021/07/23 07:00:33;;;;;;;2.70;0.98;;;17.50;69.00;;;20.99;55.55;101946.16;5043109;27;97828;-72
2021/07/23 07:03:06;;;;;;;5.85;1.30;;;17.50;69.00;;;21.06;54.53;101954.56;5019476;27;97930;-72
2021/07/23 07:05:36;;;;;;;3.10;1.15;;;17.60;69.00;;;21.10;54.00;101950.03;5039805;27;98540;-72
2021/07/23 07:08:06;;;;;;;0.30;0.30;;;17.60;69.00;;;21.09;54.52;101953.09;5038892;27;97184;-72
2021/07/23 07:10:35;;;;;;;0.47;0.47;;;17.60;68.90;;;21.18;54.79;101953.78;5038160;27;97154;-72
2021/07/23 07:13:09;;;;;;;0.70;0.57;;;17.60;68.90;;;21.23;54.90;101953.53;5038689;27;98194;-72
2021/07/23 07:15:38;;;;;;;2.05;1.00;;;17.70;68.90;;;21.26;54.56;101961.03;5042523;27;96923;-72
2021/07/23 07:18:06;;;;;;;2.70;1.52;;;17.80;68.90;;;21.28;54.98;101970.44;5035766;27;97009;-71
2021/07/23 07:20:37;;;;;;;4.90;1.10;;;17.80;68.90;;;21.37;54.13;101953.94;5040582;27;98007;-72
2021/07/23 07:23:06;;;;;;;1.55;0.73;;;17.90;68.90;;;21.53;54.69;101955.59;5038905;27;97996;-72
2021/07/23 07:25:35;;;;;;;1.80;0.68;;;18.00;68.90;;;21.61;54.72;101951.97;5036951;27;96907;-72
2021/07/23 07:28:06;;;;;;;1.27;0.50;;;18.00;68.80;;;21.72;54.38;101953.09;5044208;27;96947;-72
2021/07/23 07:30:55;;;;;;;1.00;0.95;;;18.20;68.80;;;21.90;53.85;101957.09;5053377;27;97895;-72
2021/07/23 07:33:24;;;;;;;1.80;1.08;;;18.30;68.70;;;22.03;53.61;101947.72;5039037;27;96792;-72
2021/07/23 07:35:54;;;;;;;0.82;0.50;;;18.40;68.60;;;22.19;54.00;101953.22;5037514;27;97341;-71
2021/07/23 07:38:23;;;;;;;2.80;1.05;;;18.50;68.40;;;22.21;53.72;101951.72;5022424;27;97210;-71
2021/07/23 07:40:53;;;;;;;1.17;1.08;;;18.60;68.30;;;22.27;53.52;101953.84;5037058;27;96759;-73
2021/07/23 07:43:22;;;;;;;0.75;0.63;;;18.70;68.40;;;22.40;53.43;101954.59;5039402;27;96851;-73
2021/07/23 07:45:53;;;;;;;0.95;0.57;;;18.70;68.40;;;22.51;53.54;101956.44;5045869;27;97322;-73
2021/07/23 07:48:22;;;;;;;0.82;0.82;;;18.80;68.30;;;22.62;53.42;101951.25;5036922;27;97147;-71
2021/07/23 07:50:51;;;;;;;1.05;0.77;;;18.90;68.30;;;22.75;53.56;101952.75;5032733;27;97938;-70
2021/07/23 07:53:21;;;;;;;0.70;0.68;;;19.00;68.30;;;22.81;53.62;101952.13;5032596;27;97566;-72
2021/07/23 07:55:49;;;;;;;0.43;0.38;;;19.10;68.20;;;22.87;53.32;101955.38;5038228;27;96811;-72
2021/07/23 07:58:19;;;;;;;1.48;1.00;;;19.20;68.20;;;23.00;53.47;101949.47;5037957;27;96995;-72
2021/07/23 08:00:47;;;;;;;0.45;0.28;;;19.30;68.20;;;23.07;53.34;101954.28;5040100;27;96846;-72
2021/07/23 08:03:16;;;;;;;1.90;1.02;;;19.40;68.20;;;23.19;53.14;101955.00;5035868;27;97860;-72
2021/07/23 08:05:45;;;;;;;1.63;1.52;;;19.40;68.00;;;23.20;53.22;101950.34;5041478;27;96860;-70
2021/07/23 08:08:14;;;;;;;1.85;1.48;;;19.50;67.90;;;23.25;53.24;101950.06;5038024;27;96898;-71
2021/07/23 08:10:47;;;;;;;0.45;0.43;;;19.60;67.90;;;23.38;53.15;101946.03;5037568;27;96751;-72
2021/07/23 08:13:16;;;;;;;0.43;0.43;;;19.70;67.90;;;23.51;52.92;101944.75;5050186;27;97743;-71
2021/07/23 08:15:45;;;;;;;1.60;0.68;;;19.80;67.90;;;23.64;52.89;101948.94;5036076;27;96696;-73
2021/07/23 08:18:15;;;;;;;0.75;0.68;;;19.90;67.90;;;23.68;52.90;101942.38;5044735;27;97346;-72
2021/07/23 08:20:46;;;;;;;1.25;0.88;;;20.00;67.80;;;23.77;53.05;101942.19;5032626;27;97349;-72
2021/07/23 08:23:14;;;;;;;3.72;1.85;;;20.00;67.60;;;23.87;52.85;101941.63;5030935;27;97368;-71
2021/07/23 08:25:44;;;;;;;13.02;1.20;;;20.10;67.60;;;23.92;52.50;101942.13;5034645;27;97411;-72
2021/07/23 08:28:13;;;;;;;2.22;1.50;;;20.20;67.60;;;23.94;52.81;101942.56;5033675;27;96893;-72
2021/07/23 08:30:42;;;;;;;7.22;1.20;;;20.20;67.50;;;23.98;52.79;101941.44;5033205;27;97419;-71
2021/07/23 08:33:11;;;;;;;4.20;1.10;;;20.30;67.50;;;24.08;52.70;101942.81;5032998;27;97209;-72
2021/07/23 08:35:41;;;;;;;2.33;0.88;;;20.30;67.50;;;24.24;52.11;101938.81;5034189;27;96891;-71
2021/07/23 08:38:09;;;;;;;5.30;0.85;;;20.40;67.50;;;24.45;52.36;101944.66;5036913;27;97927;-71
2021/07/23 08:40:38;;;;;;;2.22;0.40;;;20.50;67.50;;;24.69;51.57;101935.28;5028744;27;97959;-72
2021/07/23 08:43:09;;;;;;;0.30;0.30;;;20.70;67.40;;;24.92;51.59;101936.84;5038470;27;97601;-72
2021/07/23 08:45:39;;;;;;;0.35;0.35;;;20.90;67.40;;;25.10;51.75;101937.13;5031562;27;96802;-72
2021/07/23 08:48:08;;;;;;;1.02;0.52;;;21.00;67.10;;;25.34;51.02;101934.75;5031842;27;96785;-72
2021/07/23 08:50:38;;;;;;;0.30;0.30;;;21.20;67.10;;;25.62;50.53;101932.34;5031326;27;97091;-72
2021/07/23 08:53:10;;;;;;;0.28;0.28;;;21.40;67.00;;;25.82;50.34;101936.50;5036670;27;97894;-72
2021/07/23 08:55:40;;;;;;;0.30;0.30;;;21.60;66.80;;;25.94;50.93;101936.28;5036291;27;96981;-72
2021/07/23 08:58:12;;;;;;;4.57;1.38;;;21.80;66.60;;;25.98;50.34;101929.69;5037216;27;96934;-72
2021/07/23 09:00:41;;;;;;;2.40;0.73;;;21.90;66.40;;;26.05;50.42;101923.44;5033494;27;99320;-72
2021/07/23 09:03:11;;;;;;;0.08;0.08;;;21.90;66.40;;;26.05;50.78;101924.25;5031368;27;97693;-72
2021/07/23 09:05:42;;;;;;;2.25;0.60;;;22.00;66.20;;;26.09;50.71;101933.31;5028906;27;97075;-72
2021/07/23 09:08:14;;;;;;;4.13;1.42;;;22.10;66.10;;;26.14;50.58;101927.47;5032831;27;96964;-72
2021/07/23 09:10:45;;;;;;;1.23;1.13;;;22.20;66.20;;;26.22;50.45;101920.09;5020322;27;97606;-72
2021/07/23 09:13:26;;;;;;;0.20;0.10;;;22.20;66.10;;;26.15;51.36;101923.56;5031813;27;98010;-72
2021/07/23 09:15:57;;;;;;;1.95;1.65;;;22.20;66.10;;;26.01;51.35;101923.44;5032654;27;96934;-72
2021/07/23 09:18:31;;;;;;;2.47;1.35;;;22.20;66.30;;;25.73;51.73;101917.59;5033629;27;97405;-72
2021/07/23 09:21:04;;;;;;;4.20;1.55;;;22.10;66.40;;;25.40;52.52;101919.53;5031761;27;96921;-73
2021/07/23 09:23:35;;;;;;;0.40;0.38;;;21.90;66.70;;;25.19;52.93;101912.97;5028522;27;97782;-72
2021/07/23 09:26:17;;;;;;;0.85;0.60;;;21.80;67.00;;;25.24;52.86;101915.38;5030778;27;96952;-72
2021/07/23 09:28:49;;;;;;;1.97;1.80;;;21.70;67.20;;;25.20;52.97;101920.03;5031106;27;97163;-74
2021/07/23 09:31:22;;;;;;;12.75;1.75;;;21.60;67.10;;;25.20;52.70;101920.81;5018073;27;97474;-73
2021/07/23 09:33:55;;;;;;;1.65;0.68;;;21.60;67.30;;;25.21;52.69;101922.41;5028875;27;99381;-73
2021/07/23 09:36:24;;;;;;;1.70;1.13;;;21.50;67.30;;;25.26;52.96;101922.09;5032281;27;98136;-72
2021/07/23 09:39:05;;;;;;;12.80;1.35;;;21.50;67.30;;;25.32;52.98;101919.78;5032378;27;97181;-72
2021/07/23 09:41:36;;;;;;;0.80;0.65;;;21.60;67.20;;;25.33;52.96;101918.63;5024703;27;98003;-73
2021/07/23 09:44:11;;;;;;;3.30;1.75;;;21.60;67.20;;;25.43;52.05;101910.53;5031976;27;97635;-72
2021/07/23 09:46:43;;;;;;;0.73;0.57;;;21.60;67.10;;;25.60;52.41;101908.00;5032604;27;97557;-72
2021/07/23 09:49:23;;;;;;;1.23;1.13;;;21.70;67.10;;;25.79;51.44;101910.59;5030548;27;97382;-72
2021/07/23 09:51:55;;;;;;;20.00;2.10;;;21.80;66.90;;;26.03;51.15;101909.28;5016305;27;97847;-72
2021/07/23 09:54:24;;;;;;;0.57;0.50;;;21.90;66.80;;;26.34;50.89;101904.13;5037837;27;97701;-73
2021/07/23 09:56:53;;;;;;;1.73;1.40;;;22.10;66.60;;;26.63;50.57;101902.41;5032077;27;96882;-72
2021/07/23 09:59:32;;;;;;;1.38;1.27;;;22.30;66.50;;;26.87;50.25;101905.31;5034074;27;97397;-72
2021/07/23 10:02:05;;;;;;;1.25;1.15;;;22.50;66.20;;;27.01;50.10;101896.34;5031939;27;97859;-73
2021/07/23 10:04:39;;;;;;;3.65;1.75;;;22.70;66.00;;;27.22;49.87;101893.75;5035045;27;97019;-73
2021/07/23 10:07:18;;;;;;;1.83;1.15;;;22.90;65.60;;;27.49;49.42;101891.13;5032810;27;96998;-74
2021/07/23 10:09:50;;;;;;;2.83;0.75;;;23.20;65.40;;;27.95;48.75;101892.09;5028283;27;97098;-73
2021/07/23 10:12:20;;;;;;;1.20;0.63;;;23.40;65.10;;;28.39;48.10;101892.53;5028695;27;97842;-73
2021/07/23 10:14:54;;;;;;;1.58;1.48;;;23.70;64.90;;;28.82;47.66;101888.53;5032548;27;97982;-73
2021/07/23 10:17:26;;;;;;;3.95;1.45;;;24.00;64.70;;;29.20;47.28;101896.00;5033475;27;97379;-73
2021/07/23 10:19:57;;;;;;;1.20;0.95;;;24.30;64.50;;;29.57;47.09;101890.72;5033749;27;97067;-73
2021/07/23 10:22:28;;;;;;;1.83;1.02;;;24.60;64.50;;;29.79;47.22;101886.66;5034360;27;97946;-73
2021/07/23 10:24:57;;;;;;;3.20;1.60;;;25.00;64.30;;;30.05;47.04;101888.91;5015395;27;97378;-73
2021/07/23 10:27:27;;;;;;;12.15;1.58;;;25.30;64.10;;;30.22;46.95;101886.00;5035045;27;96878;-73
2021/07/23 10:29:57;;;;;;;1.40;0.75;;;25.50;63.90;;;30.43;46.82;101883.03;5028763;27;97411;-73
2021/07/23 10:32:36;;;;;;;0.73;0.57;;;25.70;63.80;;;30.76;46.64;101863.78;5035149;27;98893;-74